sensor_id;sensor_type;location;lat;lon;timestamp;P1;durP1;ratioP1;P2;durP2;ratioP2
33786;SDS011;29742;51.540;9.358;2022-11-11T00:01:28;5.03;;;3.28;;
33786;SDS011;29742;51.540;9.358;2022-11-11T00:06:29;4.40;;;2.92;;
33786;SDS011;29742;51.540;9.358;2022-11-11T00:11:29;6.93;;;3.30;;
33786;SDS011;29742;51.540;9.358;2022-11-11T00:16:30;5.18;;;3.55;;
33786;SDS011;29742;51.540;9.358;2022-11-11T00:21:51;4.18;;;2.85;;
33786;SDS011;29742;51.540;9.358;2022-11-11T00:27:11;3.70;;;2.65;;
33786;SDS011;29742;51.540;9.358;2022-11-11T00:32:13;6.32;;;2.90;;
33786;SDS011;29742;51.540;9.358;2022-11-11T00:37:23;5.03;;;2.88;;
33786;SDS011;29742;51.540;9.358;2022-11-11T00:42:24;3.85;;;2.78;;
33786;SDS011;29742;51.540;9.358;2022-11-11T00:47:25;3.67;;;2.45;;
33786;SDS011;29742;51.540;9.358;2022-11-11T00:52:45;7.85;;;3.00;;
33786;SDS011;29742;51.540;9.358;2022-11-11T00:57:46;3.47;;;2.33;;
33786;SDS011;29742;51.540;9.358;2022-11-11T01:02:47;5.45;;;2.45;;
33786;SDS011;29742;51.540;9.358;2022-11-11T01:07:49;3.85;;;2.42;;
33786;SDS011;29742;51.540;9.358;2022-11-11T01:12:52;4.03;;;2.47;;
33786;SDS011;29742;51.540;9.358;2022-11-11T01:18:11;2.75;;;2.30;;
33786;SDS011;29742;51.540;9.358;2022-11-11T01:23:12;3.67;;;2.50;;
33786;SDS011;29742;51.540;9.358;2022-11-11T01:28:13;3.78;;;2.28;;
33786;SDS011;29742;51.540;9.358;2022-11-11T01:33:14;4.72;;;2.80;;
33786;SDS011;29742;51.540;9.358;2022-11-11T01:38:15;3.63;;;2.13;;
33786;SDS011;29742;51.540;9.358;2022-11-11T01:43:20;3.05;;;2.15;;
33786;SDS011;29742;51.540;9.358;2022-11-11T01:48:26;3.42;;;2.05;;
33786;SDS011;29742;51.540;9.358;2022-11-11T01:53:48;4.32;;;2.20;;
33786;SDS011;29742;51.540;9.358;2022-11-11T01:58:51;2.75;;;2.03;;
33786;SDS011;29742;51.540;9.358;2022-11-11T02:09:15;2.90;;;2.17;;
33786;SDS011;29742;51.540;9.358;2022-11-11T02:14:16;2.47;;;2.00;;
33786;SDS011;29742;51.540;9.358;2022-11-11T02:19:39;2.15;;;1.65;;
33786;SDS011;29742;51.540;9.358;2022-11-11T02:24:42;2.75;;;1.92;;
33786;SDS011;29742;51.540;9.358;2022-11-11T02:29:44;1.70;;;1.40;;
33786;SDS011;29742;51.540;9.358;2022-11-11T02:34:46;2.60;;;1.85;;
33786;SDS011;29742;51.540;9.358;2022-11-11T02:39:47;2.25;;;1.83;;
33786;SDS011;29742;51.540;9.358;2022-11-11T02:44:49;3.22;;;1.48;;
33786;SDS011;29742;51.540;9.358;2022-11-11T02:49:57;3.28;;;2.13;;
33786;SDS011;29742;51.540;9.358;2022-11-11T02:54:58;2.20;;;1.60;;
33786;SDS011;29742;51.540;9.358;2022-11-11T02:59:59;1.70;;;1.60;;
33786;SDS011;29742;51.540;9.358;2022-11-11T03:05:01;3.15;;;1.90;;
33786;SDS011;29742;51.540;9.358;2022-11-11T03:10:02;1.98;;;1.52;;
33786;SDS011;29742;51.540;9.358;2022-11-11T03:15:03;2.80;;;1.30;;
33786;SDS011;29742;51.540;9.358;2022-11-11T03:25:27;2.55;;;1.40;;
33786;SDS011;29742;51.540;9.358;2022-11-11T03:30:37;3.83;;;1.50;;
33786;SDS011;29742;51.540;9.358;2022-11-11T03:35:39;3.15;;;1.60;;
33786;SDS011;29742;51.540;9.358;2022-11-11T03:40:46;2.22;;;1.30;;
33786;SDS011;29742;51.540;9.358;2022-11-11T03:45:48;1.98;;;1.33;;
33786;SDS011;29742;51.540;9.358;2022-11-11T03:50:49;2.55;;;1.25;;
33786;SDS011;29742;51.540;9.358;2022-11-11T03:55:50;1.90;;;1.33;;
33786;SDS011;29742;51.540;9.358;2022-11-11T04:00:52;2.15;;;1.52;;
33786;SDS011;29742;51.540;9.358;2022-11-11T04:05:53;2.33;;;1.40;;
33786;SDS011;29742;51.540;9.358;2022-11-11T04:11:24;2.33;;;1.48;;
33786;SDS011;29742;51.540;9.358;2022-11-11T04:16:26;1.38;;;1.20;;
33786;SDS011;29742;51.540;9.358;2022-11-11T04:21:27;2.67;;;1.50;;
33786;SDS011;29742;51.540;9.358;2022-11-11T04:26:43;2.55;;;1.40;;
33786;SDS011;29742;51.540;9.358;2022-11-11T04:31:44;2.15;;;1.38;;
33786;SDS011;29742;51.540;9.358;2022-11-11T04:37:04;1.60;;;1.00;;
33786;SDS011;29742;51.540;9.358;2022-11-11T04:42:05;1.85;;;1.40;;
33786;SDS011;29742;51.540;9.358;2022-11-11T04:47:05;1.52;;;1.30;;
33786;SDS011;29742;51.540;9.358;2022-11-11T04:52:08;3.85;;;1.65;;
33786;SDS011;29742;51.540;9.358;2022-11-11T04:57:27;1.77;;;1.05;;
33786;SDS011;29742;51.540;9.358;2022-11-11T05:02:28;2.67;;;1.15;;
33786;SDS011;29742;51.540;9.358;2022-11-11T05:07:48;1.33;;;0.90;;
33786;SDS011;29742;51.540;9.358;2022-11-11T05:13:08;1.17;;;0.90;;
33786;SDS011;29742;51.540;9.358;2022-11-11T05:18:27;1.80;;;1.02;;
33786;SDS011;29742;51.540;9.358;2022-11-11T05:23:48;1.88;;;1.40;;
33786;SDS011;29742;51.540;9.358;2022-11-11T05:29:07;1.50;;;1.38;;
33786;SDS011;29742;51.540;9.358;2022-11-11T05:34:08;2.90;;;1.50;;
33786;SDS011;29742;51.540;9.358;2022-11-11T05:39:09;1.40;;;1.00;;
33786;SDS011;29742;51.540;9.358;2022-11-11T05:44:10;4.65;;;1.25;;
33786;SDS011;29742;51.540;9.358;2022-11-11T05:49:11;2.00;;;1.30;;
33786;SDS011;29742;51.540;9.358;2022-11-11T05:54:15;1.73;;;0.90;;
33786;SDS011;29742;51.540;9.358;2022-11-11T05:59:16;5.57;;;1.02;;
33786;SDS011;29742;51.540;9.358;2022-11-11T06:04:17;4.22;;;1.20;;
33786;SDS011;29742;51.540;9.358;2022-11-11T06:09:18;1.52;;;1.15;;
33786;SDS011;29742;51.540;9.358;2022-11-11T06:14:19;2.13;;;1.17;;
33786;SDS011;29742;51.540;9.358;2022-11-11T06:19:20;2.92;;;0.90;;
33786;SDS011;29742;51.540;9.358;2022-11-11T06:24:21;2.72;;;1.10;;
33786;SDS011;29742;51.540;9.358;2022-11-11T06:29:22;3.15;;;1.33;;
33786;SDS011;29742;51.540;9.358;2022-11-11T06:34:23;1.67;;;1.25;;
33786;SDS011;29742;51.540;9.358;2022-11-11T06:39:24;1.15;;;0.95;;
33786;SDS011;29742;51.540;9.358;2022-11-11T06:44:25;3.60;;;1.15;;
33786;SDS011;29742;51.540;9.358;2022-11-11T06:49:26;2.38;;;0.90;;
33786;SDS011;29742;51.540;9.358;2022-11-11T06:54:27;15.00;;;1.83;;
33786;SDS011;29742;51.540;9.358;2022-11-11T06:59:28;2.35;;;1.25;;
33786;SDS011;29742;51.540;9.358;2022-11-11T07:04:29;1.27;;;0.98;;
33786;SDS011;29742;51.540;9.358;2022-11-11T07:09:30;2.05;;;1.17;;
33786;SDS011;29742;51.540;9.358;2022-11-11T07:14:31;1.73;;;1.35;;
33786;SDS011;29742;51.540;9.358;2022-11-11T07:19:32;3.00;;;0.93;;
33786;SDS011;29742;51.540;9.358;2022-11-11T07:24:33;1.35;;;0.98;;
33786;SDS011;29742;51.540;9.358;2022-11-11T07:29:34;3.45;;;1.00;;
33786;SDS011;29742;51.540;9.358;2022-11-11T07:34:34;1.50;;;0.90;;
33786;SDS011;29742;51.540;9.358;2022-11-11T07:39:35;3.33;;;1.00;;
33786;SDS011;29742;51.540;9.358;2022-11-11T07:44:36;6.63;;;1.55;;
33786;SDS011;29742;51.540;9.358;2022-11-11T07:49:37;1.30;;;1.02;;
33786;SDS011;29742;51.540;9.358;2022-11-11T07:54:38;3.65;;;1.42;;
33786;SDS011;29742;51.540;9.358;2022-11-11T07:59:39;2.55;;;1.85;;
33786;SDS011;29742;51.540;9.358;2022-11-11T08:04:40;5.70;;;1.63;;
33786;SDS011;29742;51.540;9.358;2022-11-11T08:09:42;2.13;;;1.23;;
33786;SDS011;29742;51.540;9.358;2022-11-11T08:14:42;6.15;;;1.70;;
33786;SDS011;29742;51.540;9.358;2022-11-11T08:19:43;5.22;;;1.10;;
33786;SDS011;29742;51.540;9.358;2022-11-11T08:24:44;1.30;;;0.88;;
33786;SDS011;29742;51.540;9.358;2022-11-11T08:29:45;5.97;;;1.08;;
33786;SDS011;29742;51.540;9.358;2022-11-11T08:34:46;5.28;;;1.10;;
33786;SDS011;29742;51.540;9.358;2022-11-11T08:39:47;4.35;;;1.20;;
33786;SDS011;29742;51.540;9.358;2022-11-11T08:44:48;3.20;;;1.33;;
33786;SDS011;29742;51.540;9.358;2022-11-11T08:49:50;1.90;;;0.98;;
33786;SDS011;29742;51.540;9.358;2022-11-11T08:54:51;2.20;;;0.93;;
33786;SDS011;29742;51.540;9.358;2022-11-11T08:59:52;6.25;;;1.02;;
33786;SDS011;29742;51.540;9.358;2022-11-11T09:04:53;3.78;;;1.30;;
33786;SDS011;29742;51.540;9.358;2022-11-11T09:09:54;16.35;;;4.57;;
33786;SDS011;29742;51.540;9.358;2022-11-11T09:14:55;3.47;;;1.35;;
33786;SDS011;29742;51.540;9.358;2022-11-11T09:19:56;8.75;;;1.85;;
33786;SDS011;29742;51.540;9.358;2022-11-11T09:24:57;15.95;;;3.97;;
33786;SDS011;29742;51.540;9.358;2022-11-11T09:29:58;8.63;;;1.92;;
33786;SDS011;29742;51.540;9.358;2022-11-11T09:34:59;16.55;;;2.85;;
33786;SDS011;29742;51.540;9.358;2022-11-11T09:40:00;7.75;;;1.80;;
33786;SDS011;29742;51.540;9.358;2022-11-11T09:50:21;2.85;;;1.40;;
33786;SDS011;29742;51.540;9.358;2022-11-11T09:55:27;3.35;;;1.60;;
33786;SDS011;29742;51.540;9.358;2022-11-11T10:00:31;2.58;;;1.55;;
33786;SDS011;29742;51.540;9.358;2022-11-11T10:05:37;5.60;;;1.70;;
33786;SDS011;29742;51.540;9.358;2022-11-11T10:15:47;3.42;;;1.52;;
33786;SDS011;29742;51.540;9.358;2022-11-11T10:20:51;5.82;;;1.75;;
33786;SDS011;29742;51.540;9.358;2022-11-11T10:25:54;1.98;;;0.80;;
33786;SDS011;29742;51.540;9.358;2022-11-11T10:30:55;4.97;;;1.13;;
33786;SDS011;29742;51.540;9.358;2022-11-11T10:35:59;2.45;;;1.23;;
33786;SDS011;29742;51.540;9.358;2022-11-11T10:41:43;5.47;;;1.77;;
33786;SDS011;29742;51.540;9.358;2022-11-11T10:46:29;3.03;;;1.30;;
33786;SDS011;29742;51.540;9.358;2022-11-11T10:51:33;2.33;;;1.35;;
33786;SDS011;29742;51.540;9.358;2022-11-11T10:56:44;4.22;;;1.30;;
33786;SDS011;29742;51.540;9.358;2022-11-11T11:06:52;4.00;;;1.10;;
33786;SDS011;29742;51.540;9.358;2022-11-11T11:17:26;4.28;;;1.10;;
33786;SDS011;29742;51.540;9.358;2022-11-11T11:27:49;2.25;;;1.20;;
33786;SDS011;29742;51.540;9.358;2022-11-11T11:33:00;5.13;;;1.30;;
33786;SDS011;29742;51.540;9.358;2022-11-11T11:38:01;2.80;;;0.90;;
33786;SDS011;29742;51.540;9.358;2022-11-11T11:43:05;3.38;;;1.15;;
33786;SDS011;29742;51.540;9.358;2022-11-11T11:48:34;2.95;;;1.65;;
33786;SDS011;29742;51.540;9.358;2022-11-11T12:29:23;4.47;;;1.97;;
33786;SDS011;29742;51.540;9.358;2022-11-11T12:39:51;3.88;;;1.55;;
33786;SDS011;29742;51.540;9.358;2022-11-11T13:00:53;5.18;;;1.73;;
33786;SDS011;29742;51.540;9.358;2022-11-11T13:06:01;2.05;;;1.40;;
33786;SDS011;29742;51.540;9.358;2022-11-11T13:11:13;2.30;;;1.40;;
33786;SDS011;29742;51.540;9.358;2022-11-11T13:16:16;3.95;;;1.80;;
33786;SDS011;29742;51.540;9.358;2022-11-11T13:21:35;2.72;;;1.50;;
33786;SDS011;29742;51.540;9.358;2022-11-11T13:26:44;4.10;;;1.40;;
33786;SDS011;29742;51.540;9.358;2022-11-11T13:31:46;4.63;;;1.80;;
33786;SDS011;29742;51.540;9.358;2022-11-11T13:36:51;3.67;;;1.75;;
33786;SDS011;29742;51.540;9.358;2022-11-11T13:41:54;8.02;;;1.73;;
33786;SDS011;29742;51.540;9.358;2022-11-11T13:47:00;3.45;;;1.75;;
33786;SDS011;29742;51.540;9.358;2022-11-11T13:52:03;2.85;;;1.60;;
33786;SDS011;29742;51.540;9.358;2022-11-11T13:57:05;2.67;;;1.40;;
33786;SDS011;29742;51.540;9.358;2022-11-11T14:12:41;1.98;;;1.23;;
33786;SDS011;29742;51.540;9.358;2022-11-11T14:17:42;4.03;;;1.65;;
33786;SDS011;29742;51.540;9.358;2022-11-11T14:22:44;5.18;;;1.67;;
33786;SDS011;29742;51.540;9.358;2022-11-11T14:27:45;2.08;;;1.30;;
33786;SDS011;29742;51.540;9.358;2022-11-11T14:32:53;7.47;;;1.85;;
33786;SDS011;29742;51.540;9.358;2022-11-11T14:42:57;5.43;;;1.67;;
33786;SDS011;29742;51.540;9.358;2022-11-11T14:47:58;3.38;;;1.20;;
33786;SDS011;29742;51.540;9.358;2022-11-11T14:53:19;2.45;;;1.17;;
33786;SDS011;29742;51.540;9.358;2022-11-11T14:58:24;4.27;;;1.80;;
33786;SDS011;29742;51.540;9.358;2022-11-11T15:08:39;3.22;;;1.40;;
33786;SDS011;29742;51.540;9.358;2022-11-11T15:29:19;3.38;;;1.92;;
33786;SDS011;29742;51.540;9.358;2022-11-11T15:34:36;3.85;;;1.75;;
33786;SDS011;29742;51.540;9.358;2022-11-11T15:39:39;4.43;;;1.67;;
33786;SDS011;29742;51.540;9.358;2022-11-11T15:44:41;2.05;;;1.00;;
33786;SDS011;29742;51.540;9.358;2022-11-11T15:49:42;1.83;;;1.02;;
33786;SDS011;29742;51.540;9.358;2022-11-11T15:54:44;5.03;;;1.40;;
33786;SDS011;29742;51.540;9.358;2022-11-11T15:59:45;2.85;;;1.42;;
33786;SDS011;29742;51.540;9.358;2022-11-11T16:04:47;5.45;;;1.60;;
33786;SDS011;29742;51.540;9.358;2022-11-11T16:09:50;2.07;;;1.10;;
33786;SDS011;29742;51.540;9.358;2022-11-11T16:14:52;1.63;;;1.08;;
33786;SDS011;29742;51.540;9.358;2022-11-11T16:19:54;2.72;;;1.40;;
33786;SDS011;29742;51.540;9.358;2022-11-11T16:24:56;2.20;;;1.38;;
33786;SDS011;29742;51.540;9.358;2022-11-11T16:30:13;1.48;;;0.93;;
33786;SDS011;29742;51.540;9.358;2022-11-11T16:35:23;3.17;;;1.25;;
33786;SDS011;29742;51.540;9.358;2022-11-11T16:45:28;3.40;;;1.23;;
33786;SDS011;29742;51.540;9.358;2022-11-11T16:50:29;1.35;;;0.98;;
33786;SDS011;29742;51.540;9.358;2022-11-11T16:55:34;2.15;;;1.20;;
33786;SDS011;29742;51.540;9.358;2022-11-11T17:00:37;4.95;;;1.67;;
33786;SDS011;29742;51.540;9.358;2022-11-11T17:05:55;1.98;;;1.23;;
33786;SDS011;29742;51.540;9.358;2022-11-11T17:10:57;4.25;;;1.33;;
33786;SDS011;29742;51.540;9.358;2022-11-11T17:15:59;1.88;;;1.05;;
33786;SDS011;29742;51.540;9.358;2022-11-11T17:21:03;5.78;;;1.27;;
33786;SDS011;29742;51.540;9.358;2022-11-11T17:26:04;3.17;;;1.30;;
33786;SDS011;29742;51.540;9.358;2022-11-11T17:31:06;5.72;;;1.25;;
33786;SDS011;29742;51.540;9.358;2022-11-11T17:36:08;3.33;;;1.13;;
33786;SDS011;29742;51.540;9.358;2022-11-11T17:41:12;6.68;;;1.50;;
33786;SDS011;29742;51.540;9.358;2022-11-11T17:46:13;9.85;;;1.77;;
33786;SDS011;29742;51.540;9.358;2022-11-11T17:51:14;2.47;;;1.00;;
33786;SDS011;29742;51.540;9.358;2022-11-11T17:56:15;9.45;;;1.50;;
33786;SDS011;29742;51.540;9.358;2022-11-11T18:01:16;3.72;;;1.20;;
33786;SDS011;29742;51.540;9.358;2022-11-11T18:06:17;3.08;;;1.25;;
33786;SDS011;29742;51.540;9.358;2022-11-11T18:11:18;3.45;;;1.42;;
33786;SDS011;29742;51.540;9.358;2022-11-11T18:16:19;3.20;;;1.33;;
33786;SDS011;29742;51.540;9.358;2022-11-11T18:21:20;6.00;;;1.85;;
33786;SDS011;29742;51.540;9.358;2022-11-11T18:26:21;7.20;;;1.70;;
33786;SDS011;29742;51.540;9.358;2022-11-11T18:31:22;3.17;;;1.50;;
33786;SDS011;29742;51.540;9.358;2022-11-11T18:36:23;5.60;;;2.17;;
33786;SDS011;29742;51.540;9.358;2022-11-11T18:41:24;4.68;;;1.27;;
33786;SDS011;29742;51.540;9.358;2022-11-11T18:46:26;1.77;;;1.10;;
33786;SDS011;29742;51.540;9.358;2022-11-11T18:51:31;1.67;;;1.10;;
33786;SDS011;29742;51.540;9.358;2022-11-11T18:56:34;5.32;;;1.63;;
33786;SDS011;29742;51.540;9.358;2022-11-11T19:01:38;10.60;;;1.70;;
33786;SDS011;29742;51.540;9.358;2022-11-11T19:06:39;3.97;;;1.95;;
33786;SDS011;29742;51.540;9.358;2022-11-11T19:11:42;4.35;;;1.48;;
33786;SDS011;29742;51.540;9.358;2022-11-11T19:16:43;3.67;;;1.20;;
33786;SDS011;29742;51.540;9.358;2022-11-11T19:21:45;7.75;;;1.55;;
33786;SDS011;29742;51.540;9.358;2022-11-11T19:26:45;2.28;;;1.30;;
33786;SDS011;29742;51.540;9.358;2022-11-11T19:31:48;3.53;;;1.65;;
33786;SDS011;29742;51.540;9.358;2022-11-11T19:36:49;3.00;;;1.20;;
33786;SDS011;29742;51.540;9.358;2022-11-11T19:41:52;9.25;;;2.00;;
33786;SDS011;29742;51.540;9.358;2022-11-11T19:46:52;3.45;;;1.30;;
33786;SDS011;29742;51.540;9.358;2022-11-11T19:51:54;3.50;;;1.55;;
33786;SDS011;29742;51.540;9.358;2022-11-11T19:56:55;3.67;;;1.63;;
33786;SDS011;29742;51.540;9.358;2022-11-11T20:01:56;1.75;;;1.30;;
33786;SDS011;29742;51.540;9.358;2022-11-11T20:06:57;6.13;;;1.70;;
33786;SDS011;29742;51.540;9.358;2022-11-11T20:11:58;4.13;;;1.38;;
33786;SDS011;29742;51.540;9.358;2022-11-11T20:16:58;2.55;;;1.25;;
33786;SDS011;29742;51.540;9.358;2022-11-11T20:21:59;5.25;;;1.92;;
33786;SDS011;29742;51.540;9.358;2022-11-11T20:27:04;3.22;;;1.40;;
33786;SDS011;29742;51.540;9.358;2022-11-11T20:32:06;2.33;;;1.55;;
33786;SDS011;29742;51.540;9.358;2022-11-11T20:37:06;1.33;;;1.13;;
33786;SDS011;29742;51.540;9.358;2022-11-11T20:42:07;4.53;;;1.50;;
33786;SDS011;29742;51.540;9.358;2022-11-11T20:47:08;3.03;;;1.63;;
33786;SDS011;29742;51.540;9.358;2022-11-11T20:52:09;8.38;;;1.65;;
33786;SDS011;29742;51.540;9.358;2022-11-11T20:57:11;7.13;;;1.90;;
33786;SDS011;29742;51.540;9.358;2022-11-11T21:02:15;2.40;;;2.05;;
33786;SDS011;29742;51.540;9.358;2022-11-11T21:07:16;4.55;;;1.85;;
33786;SDS011;29742;51.540;9.358;2022-11-11T21:12:17;4.05;;;1.75;;
33786;SDS011;29742;51.540;9.358;2022-11-11T21:17:18;4.20;;;1.90;;
33786;SDS011;29742;51.540;9.358;2022-11-11T21:22:19;3.03;;;1.80;;
33786;SDS011;29742;51.540;9.358;2022-11-11T21:27:20;3.88;;;1.80;;
33786;SDS011;29742;51.540;9.358;2022-11-11T21:32:21;6.70;;;2.00;;
33786;SDS011;29742;51.540;9.358;2022-11-11T21:37:22;3.47;;;1.80;;
33786;SDS011;29742;51.540;9.358;2022-11-11T21:42:23;4.38;;;1.77;;
33786;SDS011;29742;51.540;9.358;2022-11-11T21:47:25;3.47;;;2.05;;
33786;SDS011;29742;51.540;9.358;2022-11-11T21:52:26;5.03;;;2.00;;
33786;SDS011;29742;51.540;9.358;2022-11-11T21:57:27;2.22;;;1.58;;
33786;SDS011;29742;51.540;9.358;2022-11-11T22:02:28;2.63;;;1.83;;
33786;SDS011;29742;51.540;9.358;2022-11-11T22:07:29;3.20;;;1.77;;
33786;SDS011;29742;51.540;9.358;2022-11-11T22:12:30;4.38;;;2.10;;
33786;SDS011;29742;51.540;9.358;2022-11-11T22:17:31;2.88;;;1.83;;
33786;SDS011;29742;51.540;9.358;2022-11-11T22:22:32;7.18;;;3.35;;
33786;SDS011;29742;51.540;9.358;2022-11-11T22:27:33;3.03;;;2.13;;
33786;SDS011;29742;51.540;9.358;2022-11-11T22:32:34;2.80;;;2.03;;
33786;SDS011;29742;51.540;9.358;2022-11-11T22:37:35;2.92;;;2.05;;
33786;SDS011;29742;51.540;9.358;2022-11-11T22:42:36;2.13;;;1.60;;
33786;SDS011;29742;51.540;9.358;2022-11-11T22:47:37;3.65;;;1.80;;
33786;SDS011;29742;51.540;9.358;2022-11-11T22:52:38;2.83;;;1.65;;
33786;SDS011;29742;51.540;9.358;2022-11-11T22:57:39;3.15;;;2.63;;
33786;SDS011;29742;51.540;9.358;2022-11-11T23:02:40;4.53;;;2.05;;
33786;SDS011;29742;51.540;9.358;2022-11-11T23:07:41;2.92;;;2.05;;
33786;SDS011;29742;51.540;9.358;2022-11-11T23:12:42;3.63;;;2.05;;
33786;SDS011;29742;51.540;9.358;2022-11-11T23:17:43;2.38;;;2.05;;
33786;SDS011;29742;51.540;9.358;2022-11-11T23:22:44;5.35;;;2.08;;
33786;SDS011;29742;51.540;9.358;2022-11-11T23:27:45;8.55;;;2.88;;
33786;SDS011;29742;51.540;9.358;2022-11-11T23:32:45;3.00;;;2.22;;
33786;SDS011;29742;51.540;9.358;2022-11-11T23:37:46;5.95;;;2.53;;
33786;SDS011;29742;51.540;9.358;2022-11-11T23:42:47;2.83;;;2.20;;
33786;SDS011;29742;51.540;9.358;2022-11-11T23:47:48;3.40;;;2.28;;
33786;SDS011;29742;51.540;9.358;2022-11-11T23:52:49;4.55;;;2.22;;
33786;SDS011;29742;51.540;9.358;2022-11-11T23:57:50;2.20;;;1.83;;
